Time;durP1;ratioP1;P1;durP2;ratioP2;P2;SDS_P1;SDS_P2;PMS_P1;PMS_P2;Temp;Humidity;BMP_temperature;BMP_pressure;BME280_temperature;BME280_humidity;BME280_pressure;Samples;Min_cycle;Max_cycle;Signal;HPM_P1;HPM_P2
2022/03/01 00:00:33;;;;;;;7.18;5.82;;;;;;;;;;5062806;28;20110;-50
2022/03/01 00:02:58;;;;;;;7.65;5.75;;;;;;;;;;5055344;28;20147;-50
2022/03/01 00:05:23;;;;;;;7.97;6.20;;;;;;;;;;5039487;28;20025;-50
2022/03/01 00:07:49;;;;;;;8.07;5.93;;;;;;;;;;5061022;28;20373;-51
2022/03/01 00:10:14;;;;;;;8.60;6.53;;;;;;;;;;5058877;28;20290;-47
2022/03/01 00:12:39;;;;;;;7.63;6.40;;;;;;;;;;5060255;28;20036;-52
2022/03/01 00:15:04;;;;;;;8.20;6.18;;;;;;;;;;5061702;28;20855;-51
2022/03/01 00:17:30;;;;;;;6.93;5.78;;;;;;;;;;5053631;28;20021;-50
2022/03/01 00:19:55;;;;;;;8.10;5.72;;;;;;;;;;5055244;28;20032;-48
2022/03/01 00:22:20;;;;;;;7.40;6.10;;;;;;;;;;5054608;28;20021;-52
2022/03/01 00:24:46;;;;;;;8.45;6.05;;;;;;;;;;5048587;28;20028;-52
2022/03/01 00:27:11;;;;;;;7.90;6.13;;;;;;;;;;5055228;28;20048;-50
2022/03/01 00:29:36;;;;;;;7.10;5.40;;;;;;;;;;5059825;28;20024;-51
2022/03/01 00:32:01;;;;;;;6.85;5.57;;;;;;;;;;5060413;28;20035;-49
2022/03/01 00:34:27;;;;;;;6.78;5.55;;;;;;;;;;5055484;28;20017;-53
2022/03/01 00:36:52;;;;;;;6.50;5.57;;;;;;;;;;5050718;28;20074;-48
2022/03/01 00:39:17;;;;;;;8.13;5.60;;;;;;;;;;5042798;28;20020;-49
2022/03/01 00:41:42;;;;;;;8.13;5.95;;;;;;;;;;5058588;28;20302;-50
2022/03/01 00:44:07;;;;;;;7.47;5.60;;;;;;;;;;5054005;28;20055;-48
2022/03/01 00:46:32;;;;;;;6.70;5.63;;;;;;;;;;5041539;28;20027;-50
2022/03/01 00:48:58;;;;;;;5.40;4.80;;;;;;;;;;5055225;28;20036;-52
2022/03/01 00:51:25;;;;;;;6.82;5.45;;;;;;;;;;5053425;28;20035;-49
2022/03/01 00:53:50;;;;;;;6.15;5.20;;;;;;;;;;5053708;28;20026;-51
2022/03/01 00:56:16;;;;;;;6.75;5.07;;;;;;;;;;5053133;28;20021;-48
2022/03/01 00:58:41;;;;;;;6.35;5.05;;;;;;;;;;5057457;28;20024;-47
2022/03/01 01:01:06;;;;;;;5.53;4.82;;;;;;;;;;5053730;28;20032;-51
2022/03/01 01:03:31;;;;;;;7.75;5.40;;;;;;;;;;5060551;28;20051;-52
2022/03/01 01:05:56;;;;;;;6.70;5.25;;;;;;;;;;5055705;28;20099;-51
2022/03/01 01:08:22;;;;;;;7.05;5.60;;;;;;;;;;5054291;28;20032;-45
2022/03/01 01:10:47;;;;;;;5.85;4.95;;;;;;;;;;5051417;28;20028;-52
2022/03/01 01:13:13;;;;;;;6.68;5.20;;;;;;;;;;5063517;28;20056;-46
2022/03/01 01:15:38;;;;;;;5.95;4.68;;;;;;;;;;5067732;28;20036;-50
2022/03/01 01:18:03;;;;;;;5.80;4.93;;;;;;;;;;5057934;28;20028;-52
2022/03/01 01:20:29;;;;;;;7.40;5.38;;;;;;;;;;5056219;28;20025;-49
2022/03/01 01:22:54;;;;;;;6.72;5.20;;;;;;;;;;5062614;28;20478;-51
2022/03/01 01:25:20;;;;;;;6.18;5.10;;;;;;;;;;5051311;28;20017;-50
2022/03/01 01:27:48;;;;;;;7.22;5.35;;;;;;;;;;5056845;28;20080;-52
2022/03/01 01:30:15;;;;;;;5.65;4.45;;;;;;;;;;5070089;28;20366;-46
2022/03/01 01:32:42;;;;;;;6.05;4.78;;;;;;;;;;5069531;28;20063;-50
2022/03/01 01:35:07;;;;;;;6.03;5.18;;;;;;;;;;5066486;28;20030;-47
2022/03/01 01:37:33;;;;;;;6.03;4.78;;;;;;;;;;5061444;28;20792;-50
2022/03/01 01:39:58;;;;;;;5.95;4.95;;;;;;;;;;5051795;28;20105;-50
2022/03/01 01:42:23;;;;;;;6.03;4.60;;;;;;;;;;5066141;28;20112;-49
2022/03/01 01:44:49;;;;;;;6.00;4.75;;;;;;;;;;5055794;28;20024;-47
2022/03/01 01:47:14;;;;;;;4.78;4.28;;;;;;;;;;5060792;28;20035;-51
2022/03/01 01:49:39;;;;;;;5.57;4.63;;;;;;;;;;5064458;28;20026;-51
2022/03/01 01:52:05;;;;;;;5.37;4.77;;;;;;;;;;5054514;28;20032;-53
2022/03/01 01:54:30;;;;;;;6.55;4.68;;;;;;;;;;5042268;28;20295;-51
2022/03/01 01:56:55;;;;;;;5.90;4.80;;;;;;;;;;5056397;28;20450;-51
2022/03/01 01:59:20;;;;;;;6.43;4.13;;;;;;;;;;5064969;28;20434;-51
2022/03/01 02:01:45;;;;;;;5.13;4.43;;;;;;;;;;5061864;28;20036;-49
2022/03/01 02:04:11;;;;;;;4.50;4.10;;;;;;;;;;5063513;28;20033;-53
2022/03/01 02:06:37;;;;;;;5.35;4.35;;;;;;;;;;5051151;28;20021;-51
2022/03/01 02:09:02;;;;;;;4.63;4.22;;;;;;;;;;5058708;28;20028;-51
2022/03/01 02:11:27;;;;;;;6.18;4.47;;;;;;;;;;5055548;28;20033;-50
2022/03/01 02:13:53;;;;;;;5.03;4.30;;;;;;;;;;5052013;28;20075;-50
2022/03/01 02:16:18;;;;;;;5.28;4.15;;;;;;;;;;5054808;28;20025;-51
2022/03/01 02:18:44;;;;;;;5.45;4.68;;;;;;;;;;5063722;28;20036;-48
2022/03/01 02:21:09;;;;;;;5.57;4.53;;;;;;;;;;5066015;28;20029;-49
2022/03/01 02:23:34;;;;;;;5.22;4.47;;;;;;;;;;5054151;28;20506;-48
2022/03/01 02:25:59;;;;;;;4.80;4.03;;;;;;;;;;5043400;28;20024;-53
2022/03/01 02:28:24;;;;;;;4.75;4.03;;;;;;;;;;5049922;28;20043;-52
2022/03/01 02:30:50;;;;;;;6.03;4.35;;;;;;;;;;5049343;28;20036;-50
2022/03/01 02:33:15;;;;;;;5.95;4.30;;;;;;;;;;5041273;28;20067;-48
2022/03/01 02:35:40;;;;;;;6.00;4.20;;;;;;;;;;5052260;28;20112;-49
2022/03/01 02:38:05;;;;;;;5.15;4.40;;;;;;;;;;5062915;28;20036;-52
2022/03/01 02:40:30;;;;;;;4.07;3.67;;;;;;;;;;5051459;28;20010;-48
2022/03/01 02:42:56;;;;;;;4.20;3.78;;;;;;;;;;5050639;28;20024;-49
2022/03/01 02:45:21;;;;;;;5.03;4.10;;;;;;;;;;5067248;28;20020;-53
2022/03/01 02:47:47;;;;;;;4.80;3.78;;;;;;;;;;5067416;28;20037;-51
2022/03/01 02:50:13;;;;;;;4.65;4.15;;;;;;;;;;5057228;28;20112;-51
2022/03/01 02:52:38;;;;;;;5.82;4.43;;;;;;;;;;5054203;28;20028;-49
2022/03/01 02:55:04;;;;;;;4.32;3.92;;;;;;;;;;5057900;28;20025;-48
2022/03/01 02:57:29;;;;;;;4.10;3.60;;;;;;;;;;5051653;28;20021;-51
2022/03/01 02:59:55;;;;;;;4.03;3.58;;;;;;;;;;5062471;28;20040;-50
2022/03/01 03:02:20;;;;;;;4.45;3.92;;;;;;;;;;5050489;28;20021;-50
2022/03/01 03:04:46;;;;;;;4.45;3.72;;;;;;;;;;5060891;28;20045;-52
2022/03/01 03:07:12;;;;;;;4.93;4.40;;;;;;;;;;5066220;28;20028;-50
2022/03/01 03:09:37;;;;;;;5.93;4.03;;;;;;;;;;5062955;28;20500;-47
2022/03/01 03:12:03;;;;;;;4.63;3.90;;;;;;;;;;5054223;28;20143;-52
2022/03/01 03:14:28;;;;;;;4.20;3.80;;;;;;;;;;5063952;28;20137;-48
2022/03/01 03:16:53;;;;;;;4.68;4.20;;;;;;;;;;5062380;28;20021;-49
2022/03/01 03:19:19;;;;;;;5.40;4.07;;;;;;;;;;5068946;28;20083;-46
2022/03/01 03:21:44;;;;;;;5.00;3.78;;;;;;;;;;5062341;28;20024;-50
2022/03/01 03:24:10;;;;;;;4.63;3.72;;;;;;;;;;5048410;28;20381;-50
2022/03/01 03:26:35;;;;;;;4.40;3.47;;;;;;;;;;5055056;28;20082;-51
2022/03/01 03:29:01;;;;;;;3.88;3.40;;;;;;;;;;5065197;28;20082;-50
2022/03/01 03:31:26;;;;;;;4.78;3.58;;;;;;;;;;5061281;28;20028;-54
2022/03/01 03:33:51;;;;;;;5.32;3.47;;;;;;;;;;5066584;28;20028;-52
2022/03/01 03:36:17;;;;;;;4.65;3.55;;;;;;;;;;5061951;28;20083;-53
2022/03/01 03:38:42;;;;;;;4.40;3.00;;;;;;;;;;5072582;28;20059;-47
2022/03/01 03:41:07;;;;;;;5.35;4.15;;;;;;;;;;5056672;28;20444;-50
2022/03/01 03:43:32;;;;;;;4.88;4.05;;;;;;;;;;5049810;28;20052;-50
2022/03/01 03:45:57;;;;;;;3.95;3.55;;;;;;;;;;5057280;28;20028;-49
2022/03/01 03:48:23;;;;;;;4.00;3.38;;;;;;;;;;5057378;28;20112;-52
2022/03/01 03:50:48;;;;;;;4.32;3.55;;;;;;;;;;5054403;28;20033;-49
2022/03/01 03:53:13;;;;;;;5.55;3.83;;;;;;;;;;5049703;28;20202;-49
2022/03/01 03:55:38;;;;;;;6.40;4.25;;;;;;;;;;5053849;28;20062;-48
2022/03/01 03:58:04;;;;;;;4.57;3.92;;;;;;;;;;5052614;28;20029;-53
2022/03/01 04:00:29;;;;;;;4.22;3.60;;;;;;;;;;5059214;28;20033;-47
2022/03/01 04:02:54;;;;;;;4.65;3.75;;;;;;;;;;5048597;28;20055;-52
2022/03/01 04:05:19;;;;;;;5.70;3.80;;;;;;;;;;5069948;28;20024;-52
2022/03/01 04:07:45;;;;;;;4.25;3.70;;;;;;;;;;5070497;28;20484;-51
2022/03/01 04:10:12;;;;;;;4.63;3.65;;;;;;;;;;5049853;28;20369;-52
2022/03/01 04:12:37;;;;;;;4.63;3.72;;;;;;;;;;5052254;28;20056;-52
2022/03/01 04:15:03;;;;;;;4.35;3.45;;;;;;;;;;5064040;28;20494;-48
2022/03/01 04:17:28;;;;;;;5.20;4.28;;;;;;;;;;5052724;28;20040;-51
2022/03/01 04:19:54;;;;;;;5.10;3.92;;;;;;;;;;5058128;28;20103;-51
2022/03/01 04:22:19;;;;;;;3.95;3.55;;;;;;;;;;5053561;28;20032;-48
2022/03/01 04:24:44;;;;;;;4.95;3.70;;;;;;;;;;5046533;28;20062;-52
2022/03/01 04:27:10;;;;;;;4.97;3.78;;;;;;;;;;5060804;28;20021;-50
2022/03/01 04:29:35;;;;;;;5.18;3.42;;;;;;;;;;5053072;28;20460;-50
2022/03/01 04:32:01;;;;;;;3.97;3.17;;;;;;;;;;5048380;28;20470;-51
2022/03/01 04:34:26;;;;;;;3.95;3.20;;;;;;;;;;5060894;28;20024;-50
2022/03/01 04:36:52;;;;;;;3.42;3.13;;;;;;;;;;5062417;28;20048;-50
2022/03/01 04:39:17;;;;;;;3.67;3.15;;;;;;;;;;5055157;28;20090;-52
2022/03/01 04:41:43;;;;;;;3.08;2.53;;;;;;;;;;5058298;28;20108;-52
2022/03/01 04:44:08;;;;;;;3.38;3.00;;;;;;;;;;5066730;28;20033;-49
2022/03/01 04:46:34;;;;;;;4.65;3.55;;;;;;;;;;5056977;28;20021;-45
2022/03/01 04:48:59;;;;;;;5.05;4.00;;;;;;;;;;5053332;28;20050;-48
2022/03/01 04:51:24;;;;;;;4.50;3.60;;;;;;;;;;5061297;28;20539;-47
2022/03/01 04:53:50;;;;;;;3.70;3.20;;;;;;;;;;5055447;28;20043;-48
2022/03/01 04:56:15;;;;;;;4.68;3.60;;;;;;;;;;5046479;28;20036;-52
2022/03/01 04:58:40;;;;;;;3.35;3.05;;;;;;;;;;5059363;28;20056;-51
2022/03/01 05:01:05;;;;;;;3.83;3.00;;;;;;;;;;5057746;28;20400;-49
2022/03/01 05:03:30;;;;;;;4.32;3.30;;;;;;;;;;5062658;28;20076;-49
2022/03/01 05:05:56;;;;;;;4.85;3.88;;;;;;;;;;5066205;28;20029;-48
2022/03/01 05:08:21;;;;;;;5.18;3.38;;;;;;;;;;5063684;28;20025;-50
2022/03/01 05:10:46;;;;;;;4.65;3.55;;;;;;;;;;5052013;28;20028;-48
2022/03/01 05:13:11;;;;;;;3.92;3.30;;;;;;;;;;5069416;28;20021;-47
2022/03/01 05:15:37;;;;;;;3.63;3.05;;;;;;;;;;5052013;28;20029;-50
2022/03/01 05:18:02;;;;;;;3.50;3.03;;;;;;;;;;5045110;28;20056;-47
2022/03/01 05:20:27;;;;;;;3.95;3.05;;;;;;;;;;5058317;28;20033;-47
2022/03/01 05:22:53;;;;;;;2.80;2.60;;;;;;;;;;5057302;28;20408;-48
2022/03/01 05:25:19;;;;;;;3.88;3.03;;;;;;;;;;5038437;28;20119;-49
2022/03/01 05:27:45;;;;;;;3.53;3.05;;;;;;;;;;5046281;28;20025;-46
2022/03/01 05:30:12;;;;;;;4.13;3.30;;;;;;;;;;5059236;28;20035;-49
2022/03/01 05:32:37;;;;;;;3.35;2.83;;;;;;;;;;5062555;28;20476;-49
2022/03/01 05:35:03;;;;;;;3.80;3.15;;;;;;;;;;5059283;28;20035;-49
2022/03/01 05:37:29;;;;;;;4.30;3.65;;;;;;;;;;5042915;28;20032;-48
2022/03/01 05:39:54;;;;;;;4.10;3.22;;;;;;;;;;5059347;28;20020;-49
2022/03/01 05:42:19;;;;;;;3.78;3.13;;;;;;;;;;5038733;28;20497;-49
2022/03/01 05:44:44;;;;;;;2.83;2.53;;;;;;;;;;5059027;28;20017;-51
2022/03/01 05:47:09;;;;;;;3.58;3.10;;;;;;;;;;5053302;28;20021;-49
2022/03/01 05:49:35;;;;;;;5.30;3.35;;;;;;;;;;5051435;28;20185;-49
2022/03/01 05:52:00;;;;;;;3.03;2.72;;;;;;;;;;5052765;28;20107;-49
2022/03/01 05:54:26;;;;;;;4.55;3.10;;;;;;;;;;5042020;28;20128;-48
2022/03/01 05:56:51;;;;;;;3.65;3.25;;;;;;;;;;5050739;28;20031;-52
2022/03/01 05:59:16;;;;;;;2.80;2.50;;;;;;;;;;5068038;28;20141;-46
2022/03/01 06:01:41;;;;;;;3.20;2.90;;;;;;;;;;5040771;28;20024;-48
2022/03/01 06:04:07;;;;;;;3.38;2.67;;;;;;;;;;5047845;28;20051;-51
2022/03/01 06:06:32;;;;;;;4.95;2.90;;;;;;;;;;5061979;28;20016;-49
2022/03/01 06:08:57;;;;;;;3.83;2.60;;;;;;;;;;5065775;28;20029;-49
2022/03/01 06:11:22;;;;;;;3.10;2.70;;;;;;;;;;5056235;28;20064;-50
2022/03/01 06:13:48;;;;;;;2.78;2.40;;;;;;;;;;5059189;28;20025;-50
2022/03/01 06:16:13;;;;;;;3.08;2.50;;;;;;;;;;5049399;28;20508;-49
2022/03/01 06:18:38;;;;;;;3.72;3.05;;;;;;;;;;5048639;28;20567;-49
2022/03/01 06:21:04;;;;;;;3.63;2.87;;;;;;;;;;5047186;28;20021;-51
2022/03/01 06:23:30;;;;;;;3.10;2.80;;;;;;;;;;5049263;28;20330;-52
2022/03/01 06:25:56;;;;;;;3.00;2.60;;;;;;;;;;5058297;28;20029;-52
2022/03/01 06:28:21;;;;;;;4.55;3.10;;;;;;;;;;5058987;28;20154;-49
2022/03/01 06:30:46;;;;;;;4.20;2.80;;;;;;;;;;5040936;28;20390;-52
2022/03/01 06:33:11;;;;;;;2.72;2.35;;;;;;;;;;5060478;28;20032;-50
2022/03/01 06:35:36;;;;;;;4.40;2.80;;;;;;;;;;5070790;28;20032;-50
2022/03/01 06:38:02;;;;;;;3.63;3.20;;;;;;;;;;5058508;28;20040;-52
2022/03/01 06:40:28;;;;;;;3.85;2.70;;;;;;;;;;5068216;28;20056;-49
2022/03/01 06:42:54;;;;;;;5.60;3.45;;;;;;;;;;5069888;28;20028;-51
2022/03/01 06:45:19;;;;;;;5.20;3.15;;;;;;;;;;5072455;28;20017;-49
2022/03/01 06:47:45;;;;;;;5.30;3.50;;;;;;;;;;5068261;28;20035;-52
2022/03/01 06:50:10;;;;;;;3.13;2.80;;;;;;;;;;5076088;28;20031;-51
2022/03/01 06:52:35;;;;;;;4.43;2.78;;;;;;;;;;5064655;28;20028;-51
2022/03/01 06:55:04;;;;;;;3.20;2.55;;;;;;;;;;5050542;28;20076;-52
2022/03/01 06:57:29;;;;;;;3.60;2.75;;;;;;;;;;5046448;28;20043;-50
2022/03/01 06:59:55;;;;;;;4.65;2.75;;;;;;;;;;5062712;28;20028;-51
2022/03/01 07:02:21;;;;;;;5.55;3.25;;;;;;;;;;5058719;28;20017;-52
2022/03/01 07:04:46;;;;;;;4.30;3.13;;;;;;;;;;5053208;28;20047;-50
2022/03/01 07:07:12;;;;;;;4.93;3.53;;;;;;;;;;5057850;28;20096;-47
2022/03/01 07:09:37;;;;;;;5.82;3.22;;;;;;;;;;5042539;28;20109;-51
2022/03/01 07:12:02;;;;;;;4.63;3.00;;;;;;;;;;5063607;28;20120;-50
2022/03/01 07:14:28;;;;;;;5.40;2.33;;;;;;;;;;5073065;28;20074;-54
2022/03/01 07:16:53;;;;;;;4.15;2.70;;;;;;;;;;5062161;28;20469;-51
2022/03/01 07:19:18;;;;;;;4.18;2.92;;;;;;;;;;5040420;28;20374;-51
2022/03/01 07:21:43;;;;;;;3.72;3.08;;;;;;;;;;5041473;28;20505;-52
2022/03/01 07:24:08;;;;;;;5.28;3.47;;;;;;;;;;5049289;28;20050;-49
2022/03/01 07:26:34;;;;;;;3.85;2.97;;;;;;;;;;5060270;28;20025;-49
2022/03/01 07:28:59;;;;;;;4.15;3.13;;;;;;;;;;5060526;28;20394;-50
2022/03/01 07:31:24;;;;;;;5.15;2.47;;;;;;;;;;5057211;28;20024;-50
2022/03/01 07:33:49;;;;;;;4.68;3.13;;;;;;;;;;5060035;28;20020;-50
2022/03/01 07:36:14;;;;;;;4.45;2.53;;;;;;;;;;5060388;28;20028;-53
2022/03/01 07:38:40;;;;;;;4.82;2.80;;;;;;;;;;5059970;28;20394;-48
2022/03/01 07:41:05;;;;;;;4.95;2.60;;;;;;;;;;5056718;28;20607;-50
2022/03/01 07:43:30;;;;;;;4.00;3.05;;;;;;;;;;5037972;28;20021;-49
2022/03/01 07:45:55;;;;;;;3.70;3.17;;;;;;;;;;5055620;28;20101;-50
2022/03/01 07:48:21;;;;;;;4.40;2.95;;;;;;;;;;5044555;28;20061;-53
2022/03/01 07:50:46;;;;;;;3.85;2.78;;;;;;;;;;5060568;28;20373;-50
2022/03/01 07:53:11;;;;;;;5.40;3.00;;;;;;;;;;5051089;28;20076;-52
2022/03/01 07:55:36;;;;;;;2.58;2.38;;;;;;;;;;5045604;28;20373;-50
2022/03/01 07:58:01;;;;;;;3.45;3.15;;;;;;;;;;5060883;28;20033;-50
2022/03/01 08:00:27;;;;;;;3.88;2.72;;;;;;;;;;5055477;28;20493;-50
2022/03/01 08:02:52;;;;;;;3.17;2.53;;;;;;;;;;5054110;28;20037;-52
2022/03/01 08:05:17;;;;;;;2.75;2.55;;;;;;;;;;5055123;28;20032;-53
2022/03/01 08:07:43;;;;;;;3.00;2.60;;;;;;;;;;5059363;28;20025;-49
2022/03/01 08:10:08;;;;;;;2.45;1.70;;;;;;;;;;5055555;28;20409;-49
2022/03/01 08:12:33;;;;;;;2.67;2.17;;;;;;;;;;5052731;28;20028;-48
2022/03/01 08:14:58;;;;;;;3.33;2.85;;;;;;;;;;5062592;28;20106;-51
2022/03/01 08:17:24;;;;;;;2.88;2.20;;;;;;;;;;5035558;28;20029;-53
2022/03/01 08:19:49;;;;;;;3.45;2.70;;;;;;;;;;5062294;28;20024;-51
2022/03/01 08:22:14;;;;;;;3.00;1.80;;;;;;;;;;5065669;28;20017;-52
2022/03/01 08:24:39;;;;;;;2.03;1.83;;;;;;;;;;5044121;28;20082;-51
2022/03/01 08:27:05;;;;;;;2.47;2.15;;;;;;;;;;5052894;28;20024;-50
2022/03/01 08:29:30;;;;;;;4.18;2.22;;;;;;;;;;5054398;28;20024;-51
2022/03/01 08:31:55;;;;;;;3.17;2.47;;;;;;;;;;5047518;28;20033;-49
2022/03/01 08:34:21;;;;;;;2.90;1.88;;;;;;;;;;5060631;28;20031;-53
2022/03/01 08:36:46;;;;;;;2.50;2.30;;;;;;;;;;5052903;28;20073;-51
2022/03/01 08:39:11;;;;;;;2.20;1.90;;;;;;;;;;5056989;28;20163;-49
2022/03/01 08:41:36;;;;;;;2.63;2.03;;;;;;;;;;5048767;28;20138;-52
2022/03/01 08:44:02;;;;;;;2.72;2.45;;;;;;;;;;5052397;28;20016;-48
2022/03/01 08:46:28;;;;;;;1.92;1.52;;;;;;;;;;5053179;28;20021;-49
2022/03/01 08:48:53;;;;;;;1.98;1.70;;;;;;;;;;5037802;28;20087;-49
2022/03/01 08:51:21;;;;;;;2.45;1.67;;;;;;;;;;5054220;28;20040;-52
2022/03/01 08:53:46;;;;;;;2.22;2.03;;;;;;;;;;5044686;28;20087;-49
2022/03/01 08:56:14;;;;;;;2.03;1.90;;;;;;;;;;5048435;28;20111;-51
2022/03/01 08:58:39;;;;;;;2.13;1.65;;;;;;;;;;5058413;28;20119;-50
2022/03/01 09:01:04;;;;;;;2.38;1.73;;;;;;;;;;5061627;28;20103;-48
2022/03/01 09:03:30;;;;;;;4.28;2.20;;;;;;;;;;5046181;28;20079;-50
2022/03/01 09:05:55;;;;;;;2.60;1.90;;;;;;;;;;5056198;28;20108;-48
2022/03/01 09:08:20;;;;;;;2.85;1.80;;;;;;;;;;5053769;28;20025;-49
2022/03/01 09:10:45;;;;;;;2.67;1.90;;;;;;;;;;5051200;28;20075;-50
2022/03/01 09:13:11;;;;;;;2.38;1.70;;;;;;;;;;5047402;28;20055;-50
2022/03/01 09:15:36;;;;;;;2.40;1.90;;;;;;;;;;5053377;28;20032;-51
2022/03/01 09:18:08;;;;;;;3.03;2.00;;;;;;;;;;5056756;28;20016;-49
2022/03/01 09:20:33;;;;;;;2.15;1.80;;;;;;;;;;5032840;28;20437;-48
2022/03/01 09:22:59;;;;;;;2.88;2.15;;;;;;;;;;5055214;28;20120;-52
2022/03/01 09:25:24;;;;;;;1.63;1.45;;;;;;;;;;5050573;28;20067;-49
2022/03/01 09:27:49;;;;;;;2.20;1.60;;;;;;;;;;5050335;28;20020;-48
2022/03/01 09:30:16;;;;;;;1.90;1.45;;;;;;;;;;5054133;28;20029;-49
2022/03/01 09:32:41;;;;;;;1.52;1.23;;;;;;;;;;5061238;28;20024;-48
2022/03/01 09:35:07;;;;;;;2.08;1.50;;;;;;;;;;5058277;28;20032;-52
2022/03/01 09:37:32;;;;;;;2.65;2.05;;;;;;;;;;5043660;28;20022;-56
2022/03/01 09:39:58;;;;;;;2.03;1.80;;;;;;;;;;5051216;28;20426;-51
2022/03/01 09:42:24;;;;;;;3.17;1.60;;;;;;;;;;5043341;28;20049;-54
2022/03/01 09:44:50;;;;;;;4.40;2.10;;;;;;;;;;5049901;28;20534;-52
2022/03/01 09:47:15;;;;;;;3.80;2.60;;;;;;;;;;5041025;28;20205;-52
2022/03/01 09:49:40;;;;;;;8.27;2.70;;;;;;;;;;5055650;28;20021;-51
2022/03/01 09:52:06;;;;;;;6.60;3.28;;;;;;;;;;5052408;28;20511;-52
2022/03/01 09:54:31;;;;;;;7.38;3.67;;;;;;;;;;5043307;28;20022;-54
2022/03/01 09:56:56;;;;;;;7.55;3.85;;;;;;;;;;5066511;28;20020;-54
2022/03/01 09:59:22;;;;;;;8.98;4.18;;;;;;;;;;5041186;28;20036;-52
2022/03/01 10:01:51;;;;;;;8.82;4.07;;;;;;;;;;5037329;28;20029;-55
2022/03/01 10:04:16;;;;;;;6.30;3.95;;;;;;;;;;5049358;28;20068;-54
2022/03/01 10:06:42;;;;;;;10.27;4.55;;;;;;;;;;5032798;28;20021;-53
2022/03/01 10:09:12;;;;;;;11.98;5.18;;;;;;;;;;5015925;28;20037;-53
2022/03/01 10:11:37;;;;;;;10.02;5.13;;;;;;;;;;5044339;28;20020;-52
2022/03/01 10:14:02;;;;;;;10.48;5.00;;;;;;;;;;5015528;28;20052;-53
2022/03/01 10:16:35;;;;;;;9.32;5.22;;;;;;;;;;5035475;28;20512;-55
2022/03/01 10:19:00;;;;;;;7.82;4.32;;;;;;;;;;5034740;28;20056;-54
2022/03/01 10:21:26;;;;;;;10.73;5.35;;;;;;;;;;5044723;28;20434;-55
2022/03/01 10:23:52;;;;;;;10.35;4.85;;;;;;;;;;5040203;28;20390;-49
2022/03/01 10:26:27;;;;;;;10.63;5.13;;;;;;;;;;5044797;28;20051;-55
2022/03/01 10:28:54;;;;;;;10.27;5.18;;;;;;;;;;5034433;28;20017;-52
2022/03/01 10:31:22;;;;;;;11.07;5.15;;;;;;;;;;5042025;28;20061;-51
2022/03/01 10:34:02;;;;;;;11.13;5.68;;;;;;;;;;5064473;28;20029;-52
2022/03/01 10:36:28;;;;;;;10.73;5.03;;;;;;;;;;5041222;28;20132;-50
2022/03/01 10:38:56;;;;;;;12.02;5.70;;;;;;;;;;5042794;28;20032;-51
2022/03/01 10:41:23;;;;;;;13.05;6.18;;;;;;;;;;5033400;28;20025;-51
2022/03/01 10:43:57;;;;;;;11.05;5.32;;;;;;;;;;5034508;28;20032;-53
2022/03/01 10:46:22;;;;;;;10.55;5.25;;;;;;;;;;5047422;28;20044;-52
2022/03/01 10:48:57;;;;;;;12.77;5.43;;;;;;;;;;5016303;28;20037;-56
2022/03/01 10:51:22;;;;;;;10.60;5.18;;;;;;;;;;5049516;28;20350;-53
2022/03/01 10:53:48;;;;;;;10.23;5.45;;;;;;;;;;5033122;28;20026;-55
2022/03/01 10:56:14;;;;;;;9.80;5.53;;;;;;;;;;5049091;28;20021;-54
2022/03/01 10:58:41;;;;;;;10.88;5.40;;;;;;;;;;5050338;28;20021;-51
2022/03/01 11:01:06;;;;;;;11.52;5.43;;;;;;;;;;5065776;28;20029;-54
2022/03/01 11:03:32;;;;;;;12.32;5.50;;;;;;;;;;5033976;28;20060;-55
2022/03/01 11:05:57;;;;;;;10.25;5.80;;;;;;;;;;5031294;28;20018;-54
2022/03/01 11:08:29;;;;;;;9.02;5.32;;;;;;;;;;5045477;28;20403;-49
2022/03/01 11:10:55;;;;;;;9.13;5.13;;;;;;;;;;5050234;28;20041;-54
2022/03/01 11:13:23;;;;;;;9.13;5.03;;;;;;;;;;5038732;28;20516;-52
2022/03/01 11:15:56;;;;;;;10.57;5.00;;;;;;;;;;5042829;28;20052;-55
2022/03/01 11:18:48;;;;;;;12.10;5.72;;;;;;;;;;5051216;28;20055;-54
2022/03/01 11:21:14;;;;;;;11.90;6.15;;;;;;;;;;5040622;28;20124;-55
2022/03/01 11:23:40;;;;;;;9.93;5.07;;;;;;;;;;5043892;28;20112;-55
2022/03/01 11:26:10;;;;;;;13.23;5.80;;;;;;;;;;5055571;28;20496;-54
2022/03/01 11:28:40;;;;;;;11.35;5.68;;;;;;;;;;5046529;28;20136;-54
2022/03/01 11:31:17;;;;;;;9.65;5.43;;;;;;;;;;5052177;28;20029;-53
2022/03/01 11:33:52;;;;;;;10.30;4.72;;;;;;;;;;5043061;28;20022;-53
2022/03/01 11:36:20;;;;;;;9.38;5.30;;;;;;;;;;5032114;28;20121;-52
2022/03/01 11:38:45;;;;;;;8.82;4.55;;;;;;;;;;5036826;28;20550;-50
2022/03/01 11:41:14;;;;;;;9.25;4.65;;;;;;;;;;5054497;28;20020;-53
2022/03/01 11:43:39;;;;;;;10.00;5.22;;;;;;;;;;5057392;28;20040;-52
2022/03/01 11:46:13;;;;;;;11.68;5.10;;;;;;;;;;5049764;28;20014;-53
2022/03/01 11:48:43;;;;;;;10.07;5.07;;;;;;;;;;5052725;28;20028;-55
2022/03/01 11:51:09;;;;;;;11.32;5.32;;;;;;;;;;5039092;28;20033;-55
2022/03/01 11:53:35;;;;;;;8.45;5.07;;;;;;;;;;5041030;28;20028;-55
2022/03/01 11:56:02;;;;;;;11.30;5.05;;;;;;;;;;5038083;28;20493;-56
2022/03/01 11:58:27;;;;;;;12.45;5.70;;;;;;;;;;5046477;28;20381;-57
2022/03/01 12:00:53;;;;;;;9.05;5.10;;;;;;;;;;5051846;28;20021;-48
2022/03/01 12:03:22;;;;;;;8.90;5.35;;;;;;;;;;5038371;28;20053;-54
2022/03/01 12:05:48;;;;;;;9.65;4.30;;;;;;;;;;5050735;28;20044;-58
2022/03/01 12:08:14;;;;;;;9.85;5.05;;;;;;;;;;5052860;28;20033;-54
2022/03/01 12:10:50;;;;;;;11.20;5.32;;;;;;;;;;5048551;28;20033;-54
2022/03/01 12:13:15;;;;;;;10.52;4.82;;;;;;;;;;5051798;28;20103;-54
2022/03/01 12:15:41;;;;;;;10.38;5.13;;;;;;;;;;5023245;28;20602;-50
2022/03/01 12:18:13;;;;;;;10.93;5.65;;;;;;;;;;5043757;28;20496;-53
2022/03/01 12:20:40;;;;;;;11.38;4.63;;;;;;;;;;5052809;28;20020;-53
2022/03/01 12:23:06;;;;;;;9.10;4.60;;;;;;;;;;5046269;28;20021;-55
2022/03/01 12:25:32;;;;;;;9.73;5.55;;;;;;;;;;5047165;28;20024;-54
2022/03/01 12:28:00;;;;;;;12.88;5.60;;;;;;;;;;5033386;28;20028;-54
2022/03/01 12:30:25;;;;;;;10.55;4.80;;;;;;;;;;5026659;28;20064;-54
2022/03/01 12:32:55;;;;;;;9.07;4.70;;;;;;;;;;5058989;28;20052;-56
2022/03/01 12:35:21;;;;;;;8.13;4.57;;;;;;;;;;5056146;28;20075;-55
2022/03/01 12:37:47;;;;;;;14.60;5.30;;;;;;;;;;5035225;28;20116;-56
2022/03/01 12:40:12;;;;;;;11.32;5.35;;;;;;;;;;5041770;28;20014;-56
2022/03/01 12:42:37;;;;;;;9.90;5.15;;;;;;;;;;5047686;28;20133;-54
2022/03/01 12:45:03;;;;;;;7.35;4.72;;;;;;;;;;5045224;28;20489;-55
2022/03/01 12:47:29;;;;;;;11.77;4.40;;;;;;;;;;5050217;28;20024;-55
2022/03/01 12:49:54;;;;;;;9.30;5.20;;;;;;;;;;5041300;28;20017;-54
2022/03/01 12:52:20;;;;;;;8.15;4.30;;;;;;;;;;5044477;28;20029;-50
2022/03/01 12:54:49;;;;;;;7.88;4.60;;;;;;;;;;5045078;28;20079;-56
2022/03/01 12:57:15;;;;;;;8.02;4.70;;;;;;;;;;5046702;28;20017;-54
2022/03/01 12:59:40;;;;;;;8.43;4.78;;;;;;;;;;5053147;28;20525;-56
2022/03/01 13:02:07;;;;;;;7.57;4.68;;;;;;;;;;5057712;28;20096;-55
2022/03/01 13:04:34;;;;;;;10.52;4.40;;;;;;;;;;5066553;28;20070;-54
2022/03/01 13:07:00;;;;;;;8.32;4.82;;;;;;;;;;5070095;28;20107;-56
2022/03/01 13:09:25;;;;;;;7.28;4.43;;;;;;;;;;5058736;28;20171;-55
2022/03/01 13:11:50;;;;;;;9.30;5.13;;;;;;;;;;5057717;28;20040;-54
2022/03/01 13:14:17;;;;;;;8.95;4.72;;;;;;;;;;5045222;28;20067;-54
2022/03/01 13:16:46;;;;;;;7.82;4.43;;;;;;;;;;5058158;28;20032;-54
2022/03/01 13:19:12;;;;;;;7.13;4.10;;;;;;;;;;5053115;28;20020;-55
2022/03/01 13:21:47;;;;;;;9.30;3.97;;;;;;;;;;5052419;28;20021;-55
2022/03/01 13:24:17;;;;;;;6.53;4.47;;;;;;;;;;5039302;28;20028;-51
2022/03/01 13:26:43;;;;;;;6.90;3.65;;;;;;;;;;5031540;28;20025;-54
2022/03/01 13:29:10;;;;;;;7.25;4.28;;;;;;;;;;5045327;28;20032;-61
2022/03/01 13:31:35;;;;;;;10.48;4.47;;;;;;;;;;5060827;28;20028;-52
2022/03/01 13:34:01;;;;;;;7.55;4.30;;;;;;;;;;5039416;28;20030;-59
2022/03/01 13:36:27;;;;;;;7.60;4.20;;;;;;;;;;5051968;28;20328;-52
2022/03/01 13:39:01;;;;;;;6.00;3.80;;;;;;;;;;5051146;28;20102;-60
2022/03/01 13:41:28;;;;;;;6.35;3.60;;;;;;;;;;5054358;28;20060;-60
2022/03/01 13:43:54;;;;;;;7.00;3.70;;;;;;;;;;5057219;28;20039;-59
2022/03/01 13:46:19;;;;;;;5.78;3.15;;;;;;;;;;5054345;28;20100;-59
2022/03/01 13:48:44;;;;;;;5.90;3.55;;;;;;;;;;5055344;28;20036;-59
2022/03/01 13:51:10;;;;;;;6.10;3.47;;;;;;;;;;5018544;28;20085;-59
2022/03/01 13:53:38;;;;;;;8.25;3.60;;;;;;;;;;5041923;28;20776;-56
2022/03/01 13:56:04;;;;;;;6.35;3.40;;;;;;;;;;5057130;28;20138;-57
2022/03/01 13:58:30;;;;;;;7.78;3.65;;;;;;;;;;5050772;28;20540;-55
2022/03/01 14:00:57;;;;;;;6.15;3.65;;;;;;;;;;5051809;28;20452;-55
2022/03/01 14:03:27;;;;;;;6.35;3.80;;;;;;;;;;5036878;28;20091;-51
2022/03/01 14:06:02;;;;;;;6.80;4.28;;;;;;;;;;5039608;28;20052;-53
2022/03/01 14:08:28;;;;;;;8.68;4.38;;;;;;;;;;5067961;28;20025;-57
2022/03/01 14:10:54;;;;;;;6.70;3.90;;;;;;;;;;5051160;28;20124;-51
2022/03/01 14:13:26;;;;;;;7.55;4.45;;;;;;;;;;5038771;28;20037;-56
2022/03/01 14:16:02;;;;;;;6.47;3.47;;;;;;;;;;5041120;28;20068;-56
2022/03/01 14:18:35;;;;;;;6.70;4.10;;;;;;;;;;5033498;28;20486;-58
2022/03/01 14:21:01;;;;;;;6.35;3.85;;;;;;;;;;5052517;28;20061;-52
2022/03/01 14:23:26;;;;;;;6.82;3.55;;;;;;;;;;5046262;28;20052;-57
2022/03/01 14:25:51;;;;;;;5.85;3.20;;;;;;;;;;5061246;28;20029;-55
2022/03/01 14:28:16;;;;;;;7.13;3.67;;;;;;;;;;5050793;28;20052;-55
2022/03/01 14:30:42;;;;;;;6.93;3.85;;;;;;;;;;5050648;28;20045;-54
2022/03/01 14:33:07;;;;;;;6.20;3.65;;;;;;;;;;5056615;28;20540;-52